createdAt,value
2018-08-28T00:00:48.349Z,16.78
2018-08-28T00:01:48.344Z,16.86
2018-08-28T00:02:48.337Z,16.93
2018-08-28T00:03:48.332Z,16.93
2018-08-28T00:04:48.327Z,16.89
2018-08-28T00:05:48.321Z,16.90
2018-08-28T00:06:48.319Z,16.93
2018-08-28T00:07:48.310Z,16.94
2018-08-28T00:08:48.305Z,16.96
2018-08-28T00:09:48.299Z,17.01
2018-08-28T00:10:48.294Z,16.90
2018-08-28T00:11:48.287Z,16.89
2018-08-28T00:12:48.283Z,16.96
2018-08-28T00:13:48.276Z,16.91
2018-08-28T00:14:48.272Z,16.96
2018-08-28T00:15:48.268Z,16.97
2018-08-28T00:16:48.260Z,16.93
2018-08-28T00:17:48.254Z,16.93
2018-08-28T00:18:48.249Z,16.86
2018-08-28T00:19:48.242Z,16.94
2018-08-28T00:20:48.237Z,16.84
2018-08-28T00:21:48.232Z,16.78
2018-08-28T00:22:48.225Z,16.81
2018-08-28T00:23:48.221Z,16.78
2018-08-28T00:24:48.214Z,16.71
2018-08-28T00:25:48.209Z,16.75
2018-08-28T00:26:48.202Z,16.78
2018-08-28T00:27:48.197Z,16.86
2018-08-28T00:28:48.193Z,16.83
2018-08-28T00:29:48.186Z,16.96
2018-08-28T00:30:48.180Z,16.84
2018-08-28T00:31:48.174Z,16.76
2018-08-28T00:32:48.170Z,16.87
2018-08-28T00:33:48.164Z,16.93
2018-08-28T00:34:48.159Z,16.94
2018-08-28T00:35:48.152Z,16.76
2018-08-28T00:36:48.148Z,16.91
2018-08-28T00:37:48.141Z,16.91
2018-08-28T00:38:48.136Z,16.93
2018-08-28T00:39:48.130Z,16.86
2018-08-28T00:40:48.124Z,16.91
2018-08-28T00:41:48.120Z,16.84
2018-08-28T00:42:48.115Z,16.89
2018-08-28T00:43:48.109Z,16.91
2018-08-28T00:44:48.102Z,16.91
2018-08-28T00:45:48.097Z,16.91
2018-08-28T00:46:48.092Z,16.93
2018-08-28T00:47:48.085Z,16.93
2018-08-28T00:48:48.084Z,16.87
2018-08-28T00:49:48.075Z,16.89
2018-08-28T00:50:48.068Z,16.81
2018-08-28T00:51:48.063Z,16.90
2018-08-28T00:52:48.059Z,16.79
2018-08-28T00:53:48.052Z,16.76
2018-08-28T00:54:48.049Z,16.64
2018-08-28T00:55:48.041Z,16.74
2018-08-28T00:56:48.036Z,16.79
2018-08-28T00:57:48.030Z,16.72
2018-08-28T00:58:48.043Z,16.69
2018-08-28T00:59:48.018Z,16.64
2018-08-28T01:00:48.012Z,16.66
2018-08-28T01:01:48.009Z,16.74
2018-08-28T01:02:48.001Z,16.71
2018-08-28T01:03:47.995Z,16.64
2018-08-28T01:04:47.990Z,16.68
2018-08-28T01:05:47.984Z,16.72
2018-08-28T01:06:47.978Z,16.69
2018-08-28T01:07:47.972Z,16.68
2018-08-28T01:08:47.966Z,16.66
2018-08-28T01:09:47.961Z,16.60
2018-08-28T01:10:47.959Z,16.58
2018-08-28T01:11:47.949Z,16.58
2018-08-28T01:12:47.944Z,16.66
2018-08-28T01:13:47.938Z,16.66
2018-08-28T01:14:48.021Z,16.72
2018-08-28T01:15:47.927Z,16.71
2018-08-28T01:16:47.921Z,16.69
2018-08-28T01:17:47.917Z,16.71
2018-08-28T01:18:47.908Z,16.60
2018-08-28T01:19:47.904Z,16.49
2018-08-28T01:20:47.897Z,16.47
2018-08-28T01:21:47.892Z,16.51
2018-08-28T01:22:47.886Z,16.50
2018-08-28T01:23:47.881Z,16.41
2018-08-28T01:24:47.874Z,16.41
2018-08-28T01:25:47.870Z,16.39
2018-08-28T01:26:47.862Z,16.28
2018-08-28T01:27:47.858Z,16.21
2018-08-28T01:28:47.851Z,16.26
2018-08-28T01:29:47.845Z,16.24
2018-08-28T01:30:47.839Z,16.09
2018-08-28T01:31:47.832Z,16.15
2018-08-28T01:32:47.829Z,16.05
2018-08-28T01:33:47.821Z,16.10
2018-08-28T01:34:47.814Z,16.05
2018-08-28T01:35:47.811Z,16.04
2018-08-28T01:36:47.803Z,15.97
2018-08-28T01:37:47.798Z,16.00
2018-08-28T01:38:47.791Z,15.86
2018-08-28T01:39:47.785Z,15.86
2018-08-28T01:40:47.778Z,15.79
2018-08-28T01:41:47.773Z,15.83
2018-08-28T01:42:47.765Z,15.80
2018-08-28T01:43:47.760Z,15.77
2018-08-28T01:44:47.753Z,15.75
2018-08-28T01:45:47.748Z,15.77
2018-08-28T01:46:47.739Z,15.75
2018-08-28T01:47:47.733Z,15.61
2018-08-28T01:48:47.727Z,15.62
2018-08-28T01:49:47.722Z,15.67
2018-08-28T01:50:47.714Z,15.67
2018-08-28T01:51:47.708Z,15.59
2018-08-28T01:52:47.701Z,15.58
2018-08-28T01:53:47.696Z,15.57
2018-08-28T01:54:47.688Z,15.49
2018-08-28T01:55:47.682Z,15.57
2018-08-28T01:56:47.676Z,15.49
2018-08-28T01:57:47.668Z,15.47
2018-08-28T01:58:47.661Z,15.42
2018-08-28T01:59:47.656Z,15.42
2018-08-28T02:00:47.649Z,15.35
2018-08-28T02:01:47.644Z,15.28
2018-08-28T02:02:47.636Z,15.28
2018-08-28T02:03:47.631Z,15.24
2018-08-28T02:04:47.624Z,15.17
2018-08-28T02:05:47.617Z,15.07
2018-08-28T02:06:47.610Z,15.06
2018-08-28T02:07:47.603Z,14.91
2018-08-28T02:08:47.604Z,14.97
2018-08-28T02:09:47.590Z,14.99
2018-08-28T02:10:47.582Z,14.88
2018-08-28T02:11:47.576Z,14.94
2018-08-28T02:12:47.571Z,14.91
2018-08-28T02:13:47.564Z,14.79
2018-08-28T02:14:47.558Z,14.79
2018-08-28T02:15:47.550Z,14.85
2018-08-28T02:16:47.545Z,14.89
2018-08-28T02:17:47.537Z,14.69
2018-08-28T02:18:47.530Z,14.70
2018-08-28T02:19:47.525Z,14.73
2018-08-28T02:20:47.517Z,14.62
2018-08-28T02:21:47.512Z,14.58
2018-08-28T02:22:47.507Z,14.58
2018-08-28T02:23:47.498Z,14.55
2018-08-28T02:24:47.492Z,14.59
2018-08-28T02:25:47.484Z,14.59
2018-08-28T02:26:47.477Z,14.63
2018-08-28T02:27:47.470Z,14.68
2018-08-28T02:28:47.464Z,14.65
2018-08-28T02:29:47.462Z,14.62
2018-08-28T02:30:47.450Z,14.51
2018-08-28T02:31:47.448Z,14.58
2018-08-28T02:32:47.436Z,14.55
2018-08-28T02:33:47.537Z,14.53
2018-08-28T02:34:47.426Z,14.43
2018-08-28T02:35:47.420Z,14.44
2018-08-28T02:36:47.411Z,14.44
2018-08-28T02:37:47.404Z,14.35
2018-08-28T02:38:47.404Z,14.37
2018-08-28T02:39:47.389Z,14.35
2018-08-28T02:40:47.382Z,14.29
2018-08-28T02:41:47.376Z,14.26
2018-08-28T02:42:47.369Z,14.30
2018-08-28T02:43:47.361Z,14.30
2018-08-28T02:44:47.356Z,14.26
2018-08-28T02:45:47.350Z,14.26
2018-08-28T02:46:47.343Z,14.32
2018-08-28T02:47:47.334Z,14.26
2018-08-28T02:48:47.327Z,14.23
2018-08-28T02:49:47.322Z,14.17
2018-08-28T02:50:47.317Z,14.20
2018-08-28T02:51:47.311Z,14.25
2018-08-28T02:52:47.299Z,14.20
2018-08-28T02:53:47.293Z,14.17
2018-08-28T02:54:47.286Z,14.08
2018-08-28T02:55:47.278Z,14.11
2018-08-28T02:56:47.272Z,14.14
2018-08-28T02:57:47.266Z,14.07
2018-08-28T02:58:47.257Z,14.10
2018-08-28T02:59:47.251Z,14.08
2018-08-28T03:00:47.247Z,14.08
2018-08-28T03:01:47.237Z,14.04
2018-08-28T03:02:47.260Z,14.14
2018-08-28T03:03:47.224Z,14.11
2018-08-28T03:04:47.217Z,14.07
2018-08-28T03:05:47.209Z,14.10
2018-08-28T03:06:47.202Z,14.04
2018-08-28T03:07:47.195Z,14.05
2018-08-28T03:08:47.188Z,14.07
2018-08-28T03:09:47.181Z,14.04
2018-08-28T03:10:47.174Z,14.07
2018-08-28T03:11:47.168Z,14.03
2018-08-28T03:12:47.161Z,14.03
2018-08-28T03:13:47.154Z,14.04
2018-08-28T03:14:47.147Z,13.97
2018-08-28T03:15:47.154Z,14.03
2018-08-28T03:16:47.132Z,13.93
2018-08-28T03:17:47.124Z,13.95
2018-08-28T03:18:47.120Z,13.92
2018-08-28T03:19:47.112Z,13.92
2018-08-28T03:20:47.103Z,14.00
2018-08-28T03:21:47.096Z,13.93
2018-08-28T03:22:47.088Z,13.96
2018-08-28T03:23:47.082Z,13.83
2018-08-28T03:24:47.078Z,13.89
2018-08-28T03:25:47.068Z,13.95
2018-08-28T03:26:47.060Z,13.85
2018-08-28T03:27:47.057Z,13.77
2018-08-28T03:28:47.046Z,13.77
2018-08-28T03:29:47.041Z,13.77
2018-08-28T03:30:47.038Z,13.70
2018-08-28T03:31:47.070Z,13.83
2018-08-28T03:32:47.017Z,13.78
2018-08-28T03:33:47.011Z,13.63
2018-08-28T03:34:47.004Z,13.67
2018-08-28T03:35:46.995Z,13.67
2018-08-28T03:36:46.990Z,13.68
2018-08-28T03:37:46.985Z,13.63
2018-08-28T03:38:46.974Z,13.63
2018-08-28T03:39:46.969Z,13.63
2018-08-28T03:40:46.959Z,13.59
2018-08-28T03:41:46.957Z,13.53
2018-08-28T03:42:46.946Z,13.54
2018-08-28T03:43:46.938Z,13.49
2018-08-28T03:44:46.967Z,13.46
2018-08-28T03:45:46.924Z,13.47
2018-08-28T03:46:46.916Z,13.42
2018-08-28T03:47:46.909Z,13.38
2018-08-28T03:48:46.903Z,13.41
2018-08-28T03:49:46.895Z,13.42
2018-08-28T03:50:46.892Z,13.35
2018-08-28T03:51:46.880Z,13.37
2018-08-28T03:52:46.873Z,13.41
2018-08-28T03:53:46.866Z,13.33
2018-08-28T03:54:46.858Z,13.37
2018-08-28T03:55:46.851Z,13.39
2018-08-28T03:56:46.844Z,13.25
2018-08-28T03:57:46.838Z,13.39
2018-08-28T03:58:46.829Z,13.35
2018-08-28T03:59:46.822Z,13.33
2018-08-28T04:00:46.816Z,13.33
2018-08-28T04:01:46.808Z,13.39
2018-08-28T04:02:46.800Z,13.33
2018-08-28T04:03:46.827Z,13.35
2018-08-28T04:04:46.786Z,13.28
2018-08-28T04:05:46.781Z,13.28
2018-08-28T04:06:46.769Z,13.25
2018-08-28T04:07:46.768Z,13.38
2018-08-28T04:08:46.756Z,13.28
2018-08-28T04:09:46.748Z,13.27
2018-08-28T04:10:46.743Z,13.37
2018-08-28T04:11:46.733Z,13.31
2018-08-28T04:12:46.728Z,13.30
2018-08-28T04:13:46.719Z,13.31
2018-08-28T04:14:46.712Z,13.28
2018-08-28T04:15:46.706Z,13.27
2018-08-28T04:16:46.696Z,13.28
2018-08-28T04:17:46.689Z,13.28
2018-08-28T04:18:46.681Z,13.33
2018-08-28T04:19:46.674Z,13.25
2018-08-28T04:20:46.667Z,13.23
2018-08-28T04:21:46.659Z,13.28
2018-08-28T04:22:46.651Z,13.25
2018-08-28T04:23:46.644Z,13.27
2018-08-28T04:24:46.640Z,13.22
2018-08-28T04:25:46.629Z,13.31
2018-08-28T04:26:46.621Z,13.19
2018-08-28T04:27:46.613Z,13.28
2018-08-28T04:28:46.607Z,13.27
2018-08-28T04:29:46.598Z,13.27
2018-08-28T04:30:46.623Z,13.20
2018-08-28T04:31:46.582Z,13.27
2018-08-28T04:32:46.576Z,13.18
2018-08-28T04:33:46.568Z,13.15
2018-08-28T04:34:46.560Z,13.11
2018-08-28T04:35:46.551Z,13.20
2018-08-28T04:36:46.545Z,13.15
2018-08-28T04:37:46.537Z,13.15
2018-08-28T04:38:46.529Z,13.18
2018-08-28T04:39:46.521Z,13.12
2018-08-28T04:40:46.514Z,13.13
2018-08-28T04:41:46.558Z,13.25
2018-08-28T04:42:46.500Z,13.09
2018-08-28T04:43:46.490Z,13.11
2018-08-28T04:44:46.482Z,12.98
2018-08-28T04:45:46.476Z,13.13
2018-08-28T04:46:46.467Z,13.05
2018-08-28T04:47:46.459Z,13.09
2018-08-28T04:48:46.507Z,12.95
2018-08-28T04:49:46.447Z,13.03
2018-08-28T04:50:46.436Z,13.05
2018-08-28T04:51:46.428Z,12.98
2018-08-28T04:52:46.420Z,13.15
2018-08-28T04:53:46.413Z,13.12
2018-08-28T04:54:46.453Z,13.12
2018-08-28T04:55:46.397Z,13.12
2018-08-28T04:56:46.390Z,13.13
2018-08-28T04:57:46.382Z,13.01
2018-08-28T04:58:46.375Z,13.00
2018-08-28T04:59:46.367Z,13.08
2018-08-28T05:00:46.450Z,13.11
2018-08-28T05:01:46.353Z,13.12
2018-08-28T05:02:46.343Z,13.22
2018-08-28T05:03:46.337Z,13.08
2018-08-28T05:04:46.328Z,13.12
2018-08-28T05:05:46.323Z,13.08
2018-08-28T05:06:46.313Z,13.12
2018-08-28T05:07:46.306Z,13.12
2018-08-28T05:08:46.297Z,13.09
2018-08-28T05:09:46.291Z,13.09
2018-08-28T05:10:46.282Z,13.16
2018-08-28T05:11:46.329Z,13.13
2018-08-28T05:12:46.268Z,13.12
2018-08-28T05:13:46.261Z,13.19
2018-08-28T05:14:46.252Z,13.27
2018-08-28T05:15:46.264Z,13.27
2018-08-28T05:16:46.236Z,13.20
2018-08-28T05:17:46.229Z,13.28
2018-08-28T05:18:46.223Z,13.27
2018-08-28T05:19:46.215Z,13.25
2018-08-28T05:20:46.206Z,13.25
2018-08-28T05:21:46.200Z,13.37
2018-08-28T05:22:46.191Z,13.39
2018-08-28T05:23:46.182Z,13.41
2018-08-28T05:24:46.176Z,13.39
2018-08-28T05:25:46.168Z,13.46
2018-08-28T05:26:46.161Z,13.50
2018-08-28T05:27:46.152Z,13.52
2018-08-28T05:28:46.146Z,13.49
2018-08-28T05:29:46.138Z,13.49
2018-08-28T05:30:46.130Z,13.50
2018-08-28T05:31:46.122Z,13.54
2018-08-28T05:32:46.115Z,13.54
2018-08-28T05:33:46.111Z,13.59
2018-08-28T05:34:46.100Z,13.53
2018-08-28T05:35:46.092Z,13.57
2018-08-28T05:36:46.086Z,13.67
2018-08-28T05:37:46.077Z,13.72
2018-08-28T05:38:46.071Z,13.60
2018-08-28T05:39:46.065Z,13.63
2018-08-28T05:40:46.056Z,13.60
2018-08-28T05:41:46.047Z,13.67
2018-08-28T05:42:46.040Z,13.60
2018-08-28T05:43:46.033Z,13.74
2018-08-28T05:44:46.028Z,13.71
2018-08-28T05:45:46.018Z,13.67
2018-08-28T05:46:46.010Z,13.72
2018-08-28T05:47:46.004Z,13.77
2018-08-28T05:48:46.257Z,13.77
2018-08-28T05:49:45.990Z,13.79
2018-08-28T05:50:45.982Z,13.85
2018-08-28T05:51:45.973Z,13.83
2018-08-28T05:52:45.967Z,13.86
2018-08-28T05:53:45.959Z,13.86
2018-08-28T05:54:45.951Z,13.93
2018-08-28T05:55:45.947Z,13.99
2018-08-28T05:56:45.939Z,14.04
2018-08-28T05:57:45.932Z,14.05
2018-08-28T05:58:45.925Z,14.08
2018-08-28T05:59:45.915Z,14.05
2018-08-28T06:00:45.910Z,14.23
2018-08-28T06:01:45.903Z,14.30
2018-08-28T06:02:45.894Z,14.30
2018-08-28T06:03:45.888Z,14.29
2018-08-28T06:04:45.879Z,14.23
2018-08-28T06:05:45.874Z,14.37
2018-08-28T06:06:45.865Z,14.29
2018-08-28T06:07:45.859Z,14.32
2018-08-28T06:08:45.914Z,14.44
2018-08-28T06:09:45.845Z,14.44
2018-08-28T06:10:45.836Z,14.47
2018-08-28T06:11:45.831Z,14.53
2018-08-28T06:12:45.823Z,14.63
2018-08-28T06:13:45.817Z,14.60
2018-08-28T06:14:45.939Z,14.63
2018-08-28T06:15:45.802Z,14.54
2018-08-28T06:16:45.795Z,14.60
2018-08-28T06:17:45.788Z,14.65
2018-08-28T06:18:45.780Z,14.69
2018-08-28T06:19:45.775Z,14.73
2018-08-28T06:20:45.768Z,14.77
2018-08-28T06:21:45.762Z,14.70
2018-08-28T06:22:45.754Z,14.82
2018-08-28T06:23:45.747Z,14.82
2018-08-28T06:24:45.742Z,14.81
2018-08-28T06:25:45.782Z,14.79
2018-08-28T06:26:45.728Z,14.89
2018-08-28T06:27:45.721Z,14.97
2018-08-28T06:28:45.716Z,14.96
2018-08-28T06:29:45.709Z,15.03
2018-08-28T06:30:45.703Z,15.03
2018-08-28T06:31:45.697Z,15.10
2018-08-28T06:32:45.690Z,15.18
2018-08-28T06:33:45.684Z,15.21
2018-08-28T06:34:45.677Z,15.27
2018-08-28T06:35:45.670Z,15.37
2018-08-28T06:36:45.666Z,15.44
2018-08-28T06:37:45.659Z,15.44
2018-08-28T06:38:45.658Z,15.58
2018-08-28T06:39:45.654Z,15.64
2018-08-28T06:40:45.644Z,15.77
2018-08-28T06:41:45.635Z,15.79
2018-08-28T06:42:45.628Z,15.90
2018-08-28T06:43:45.626Z,16.05
2018-08-28T06:44:45.617Z,16.13
2018-08-28T06:45:45.612Z,16.20
2018-08-28T06:46:45.606Z,16.31
2018-08-28T06:47:45.602Z,16.36
2018-08-28T06:48:45.599Z,16.41
2018-08-28T06:49:45.591Z,16.36
2018-08-28T06:50:45.585Z,16.47
2018-08-28T06:51:45.581Z,16.57
2018-08-28T06:52:45.576Z,16.65
2018-08-28T06:53:45.572Z,16.75
2018-08-28T06:54:45.566Z,16.93
2018-08-28T06:55:45.563Z,16.99
2018-08-28T06:56:45.620Z,17.02
2018-08-28T06:57:45.553Z,17.14
2018-08-28T06:58:45.551Z,17.15
2018-08-28T06:59:45.545Z,17.22
2018-08-28T07:00:45.542Z,17.20
2018-08-28T07:01:45.536Z,17.26
2018-08-28T07:02:45.533Z,17.44
2018-08-28T07:03:45.584Z,17.46
2018-08-28T07:04:45.525Z,17.54
2018-08-28T07:05:45.523Z,17.71
2018-08-28T07:06:45.518Z,17.76
2018-08-28T07:07:45.516Z,17.71
2018-08-28T07:08:45.512Z,17.82
2018-08-28T07:09:45.509Z,17.92
2018-08-28T07:10:45.504Z,18.00
2018-08-28T07:11:45.502Z,17.95
2018-08-28T07:12:45.498Z,18.07
2018-08-28T07:13:45.495Z,18.04
2018-08-28T07:14:45.493Z,18.10
2018-08-28T07:15:45.494Z,18.08
2018-08-28T07:16:45.487Z,18.11
2018-08-28T07:17:45.486Z,18.18
2018-08-28T07:18:45.545Z,18.26
2018-08-28T07:19:45.478Z,18.05
2018-08-28T07:20:45.479Z,17.95
2018-08-28T07:21:45.472Z,17.98
2018-08-28T07:22:45.471Z,17.94
2018-08-28T07:23:45.466Z,18.05
2018-08-28T07:24:45.465Z,18.11
2018-08-28T07:25:45.596Z,18.18
2018-08-28T07:26:45.460Z,18.19
2018-08-28T07:27:45.456Z,18.25
2018-08-28T07:28:45.454Z,18.38
2018-08-28T07:29:45.452Z,18.62
2018-08-28T07:30:45.450Z,18.62
2018-08-28T07:31:45.519Z,18.80
2018-08-28T07:32:45.446Z,18.75
2018-08-28T07:33:45.443Z,18.88
2018-08-28T07:34:45.441Z,18.80
2018-08-28T07:35:45.443Z,18.59
2018-08-28T07:36:45.436Z,18.50
2018-08-28T07:37:45.436Z,18.38
2018-08-28T07:38:45.431Z,18.31
2018-08-28T07:39:45.430Z,18.19
2018-08-28T07:40:45.427Z,18.18
2018-08-28T07:41:45.430Z,18.05
2018-08-28T07:42:45.428Z,17.97
2018-08-28T07:43:45.419Z,18.10
2018-08-28T07:44:45.416Z,18.15
2018-08-28T07:45:45.418Z,18.22
2018-08-28T07:46:45.411Z,18.40
2018-08-28T07:47:45.408Z,18.60
2018-08-28T07:48:45.407Z,18.75
2018-08-28T07:49:45.404Z,18.75
2018-08-28T07:50:45.401Z,18.81
2018-08-28T07:51:45.399Z,18.84
2018-08-28T07:52:45.396Z,18.80
2018-08-28T07:53:45.412Z,18.73
2018-08-28T07:54:45.392Z,18.71
2018-08-28T07:55:45.389Z,18.70
2018-08-28T07:56:45.387Z,18.84
2018-08-28T07:57:45.385Z,18.86
2018-08-28T07:58:45.381Z,18.84
2018-08-28T07:59:45.379Z,18.89
2018-08-28T08:00:45.388Z,18.98
2018-08-28T08:01:45.374Z,18.98
2018-08-28T08:02:45.370Z,19.09
2018-08-28T08:03:45.369Z,19.12
2018-08-28T08:04:45.366Z,19.11
2018-08-28T08:05:45.365Z,18.81
2018-08-28T08:06:45.361Z,18.68
2018-08-28T08:07:45.359Z,18.63
2018-08-28T08:08:45.357Z,18.59
2018-08-28T08:09:45.353Z,18.60
2018-08-28T08:10:45.350Z,18.55
2018-08-28T08:11:45.347Z,18.40
2018-08-28T08:12:45.344Z,18.35
2018-08-28T08:13:45.342Z,18.40
2018-08-28T08:14:45.337Z,18.33
2018-08-28T08:15:45.439Z,18.44
2018-08-28T08:16:45.331Z,18.55
2018-08-28T08:17:45.328Z,18.58
2018-08-28T08:18:45.326Z,18.70
2018-08-28T08:19:45.360Z,18.83
2018-08-28T08:20:45.323Z,18.89
2018-08-28T08:21:45.317Z,19.04
2018-08-28T08:22:45.315Z,19.22
2018-08-28T08:23:45.310Z,19.31
2018-08-28T08:24:45.309Z,19.27
2018-08-28T08:25:45.305Z,19.26
2018-08-28T08:26:45.303Z,19.09
2018-08-28T08:27:45.368Z,19.18
2018-08-28T08:28:45.298Z,19.16
2018-08-28T08:29:45.294Z,19.18
2018-08-28T08:30:45.292Z,19.30
2018-08-28T08:31:45.289Z,19.27
2018-08-28T08:32:45.287Z,19.29
2018-08-28T08:33:45.284Z,19.24
2018-08-28T08:34:45.282Z,19.33
2018-08-28T08:35:45.279Z,19.37
2018-08-28T08:36:45.276Z,19.36
2018-08-28T08:37:45.274Z,19.15
2018-08-28T08:38:45.272Z,19.15
2018-08-28T08:39:45.269Z,19.12
2018-08-28T08:40:45.268Z,19.11
2018-08-28T08:41:45.264Z,19.22
2018-08-28T08:42:45.262Z,19.27
2018-08-28T08:43:45.261Z,19.39
2018-08-28T08:44:45.256Z,19.48
2018-08-28T08:45:45.255Z,19.40
2018-08-28T08:46:45.253Z,19.34
2018-08-28T08:47:45.250Z,19.24
2018-08-28T08:48:45.249Z,19.26
2018-08-28T08:49:45.244Z,19.22
2018-08-28T08:50:45.242Z,19.27
2018-08-28T08:51:45.238Z,19.27
2018-08-28T08:52:45.237Z,19.27
2018-08-28T08:53:45.234Z,19.27
2018-08-28T08:54:45.240Z,19.29
2018-08-28T08:55:45.229Z,19.26
2018-08-28T08:56:45.228Z,19.37
2018-08-28T08:57:45.225Z,19.48
2018-08-28T08:58:45.221Z,19.79
2018-08-28T08:59:45.220Z,19.86
2018-08-28T09:00:45.219Z,19.92
2018-08-28T09:01:45.217Z,19.85
2018-08-28T09:02:45.216Z,20.03
2018-08-28T09:03:45.213Z,20.24
2018-08-28T09:04:45.213Z,20.43
2018-08-28T09:05:45.211Z,20.66
2018-08-28T09:06:45.211Z,20.70
2018-08-28T09:07:45.210Z,20.87
2018-08-28T09:08:45.211Z,20.85
2018-08-28T09:09:45.213Z,20.85
2018-08-28T09:10:45.210Z,21.07
2018-08-28T09:11:45.211Z,21.18
2018-08-28T09:12:45.212Z,21.35
2018-08-28T09:13:45.215Z,21.57
2018-08-28T09:14:45.214Z,21.73
2018-08-28T09:15:45.217Z,21.64
2018-08-28T09:16:45.221Z,21.88
2018-08-28T09:17:45.224Z,22.23
2018-08-28T09:18:45.228Z,22.50
2018-08-28T09:19:45.227Z,22.72
2018-08-28T09:20:45.229Z,22.68
2018-08-28T09:21:45.239Z,22.81
2018-08-28T09:22:45.239Z,22.87
2018-08-28T09:23:45.245Z,22.72
2018-08-28T09:24:45.254Z,22.65
2018-08-28T09:25:45.253Z,22.73
2018-08-28T09:26:45.258Z,22.96
2018-08-28T09:27:45.262Z,23.10
2018-08-28T09:28:45.268Z,22.87
2018-08-28T09:29:45.272Z,22.76
2018-08-28T09:30:45.281Z,22.59
2018-08-28T09:31:45.347Z,22.44
2018-08-28T09:32:45.285Z,22.29
2018-08-28T09:33:45.288Z,22.18
2018-08-28T09:34:45.291Z,22.23
2018-08-28T09:35:45.294Z,22.25
2018-08-28T09:36:45.297Z,22.18
2018-08-28T09:37:45.301Z,21.93
2018-08-28T09:38:45.316Z,21.80
2018-08-28T09:39:45.305Z,21.69
2018-08-28T09:40:45.307Z,21.69
2018-08-28T09:41:45.310Z,21.82
2018-08-28T09:42:45.313Z,21.91
2018-08-28T09:43:45.320Z,22.10
2018-08-28T09:44:45.318Z,22.07
2018-08-28T09:45:45.320Z,22.13
2018-08-28T09:46:45.321Z,22.25
2018-08-28T09:47:45.324Z,22.26
2018-08-28T09:48:45.327Z,22.30
2018-08-28T09:49:45.331Z,22.47
2018-08-28T09:50:45.489Z,22.57
2018-08-28T09:51:45.336Z,22.66
2018-08-28T09:52:45.341Z,22.93
2018-08-28T09:53:45.343Z,22.90
2018-08-28T09:54:45.345Z,22.91
2018-08-28T09:55:45.349Z,22.93
2018-08-28T09:56:45.411Z,22.81
2018-08-28T09:57:45.358Z,22.60
2018-08-28T09:58:45.362Z,22.57
2018-08-28T09:59:45.362Z,22.39
2018-08-28T10:00:45.366Z,22.08
2018-08-28T10:01:45.368Z,22.13
2018-08-28T10:02:45.369Z,22.07
2018-08-28T10:03:45.374Z,22.10
2018-08-28T10:04:45.454Z,21.91
2018-08-28T10:05:45.377Z,21.85
2018-08-28T10:06:45.378Z,21.83
2018-08-28T10:07:45.409Z,21.92
2018-08-28T10:08:45.383Z,22.07
2018-08-28T10:09:45.385Z,22.23
2018-08-28T10:10:45.439Z,22.30
2018-08-28T10:11:45.388Z,22.33
2018-08-28T10:12:45.390Z,22.08
2018-08-28T10:13:45.397Z,21.99
2018-08-28T10:14:45.405Z,21.77
2018-08-28T10:15:45.398Z,21.61
2018-08-28T10:16:45.401Z,21.52
2018-08-28T10:17:45.402Z,21.58
2018-08-28T10:18:45.402Z,21.54
2018-08-28T10:19:45.405Z,21.36
2018-08-28T10:20:45.406Z,21.35
2018-08-28T10:21:45.407Z,21.42
2018-08-28T10:22:45.462Z,21.46
2018-08-28T10:23:45.409Z,21.55
2018-08-28T10:24:45.412Z,21.46
2018-08-28T10:25:45.413Z,21.46
2018-08-28T10:26:45.414Z,21.69
2018-08-28T10:27:45.416Z,21.91
2018-08-28T10:28:45.419Z,22.18
2018-08-28T10:29:45.456Z,22.26
2018-08-28T10:30:45.459Z,22.39
2018-08-28T10:31:45.422Z,22.33
2018-08-28T10:32:45.427Z,22.28
2018-08-28T10:33:45.424Z,22.02
2018-08-28T10:34:45.425Z,21.92
2018-08-28T10:35:45.427Z,21.72
2018-08-28T10:36:45.428Z,21.75
2018-08-28T10:37:45.429Z,21.82
2018-08-28T10:38:45.430Z,21.88
2018-08-28T10:39:45.432Z,21.83
2018-08-28T10:40:45.432Z,21.88
2018-08-28T10:41:45.434Z,22.10
2018-08-28T10:42:45.434Z,22.28
2018-08-28T10:43:45.437Z,22.28
2018-08-28T10:44:45.437Z,22.33
2018-08-28T10:45:45.439Z,22.45
2018-08-28T10:46:45.633Z,22.87
2018-08-28T10:47:45.444Z,23.25
2018-08-28T10:48:45.448Z,23.73
2018-08-28T10:49:45.450Z,23.92
2018-08-28T10:50:45.454Z,24.28
2018-08-28T10:51:45.459Z,24.54
2018-08-28T10:52:45.515Z,24.38
2018-08-28T10:53:45.474Z,24.30
2018-08-28T10:54:45.480Z,23.99
2018-08-28T10:55:45.485Z,23.73
2018-08-28T10:56:45.491Z,23.84
2018-08-28T10:57:45.497Z,23.95
2018-08-28T10:58:45.714Z,24.16
2018-08-28T10:59:45.509Z,24.17
2018-08-28T11:00:45.517Z,24.45
2018-08-28T11:01:45.524Z,24.70
2018-08-28T11:02:45.534Z,24.85
2018-08-28T11:03:45.547Z,25.07
2018-08-28T11:04:45.546Z,24.89
2018-08-28T11:05:45.554Z,24.81
2018-08-28T11:06:45.561Z,25.03
2018-08-28T11:07:45.568Z,25.31
2018-08-28T11:08:45.693Z,25.59
2018-08-28T11:09:45.586Z,25.51
2018-08-28T11:10:45.593Z,25.69
2018-08-28T11:11:45.603Z,25.62
2018-08-28T11:12:45.611Z,25.50
2018-08-28T11:13:45.621Z,24.98
2018-08-28T11:14:45.627Z,24.76
2018-08-28T11:15:45.638Z,24.70
2018-08-28T11:16:45.645Z,24.93
2018-08-28T11:17:45.656Z,25.18
2018-08-28T11:18:45.663Z,25.43
2018-08-28T11:19:45.674Z,25.48
2018-08-28T11:20:45.685Z,25.73
2018-08-28T11:21:45.693Z,25.63
2018-08-28T11:22:45.760Z,25.72
2018-08-28T11:23:45.714Z,25.83
2018-08-28T11:24:45.723Z,25.59
2018-08-28T11:25:45.735Z,25.47
2018-08-28T11:26:45.743Z,25.28
2018-08-28T11:27:45.754Z,25.11
2018-08-28T11:28:45.764Z,24.88
2018-08-28T11:29:45.774Z,24.95
2018-08-28T11:30:45.784Z,25.18
2018-08-28T11:31:45.796Z,25.55
2018-08-28T11:32:45.805Z,25.96
2018-08-28T11:33:45.818Z,26.18
2018-08-28T11:34:45.826Z,26.02
2018-08-28T11:35:45.910Z,25.60
2018-08-28T11:36:45.852Z,25.16
2018-08-28T11:37:45.858Z,25.13
2018-08-28T11:38:45.866Z,25.41
2018-08-28T11:39:45.877Z,25.73
2018-08-28T11:40:45.885Z,25.65
2018-08-28T11:41:45.897Z,25.51
2018-08-28T11:42:45.908Z,25.63
2018-08-28T11:43:45.914Z,25.84
2018-08-28T11:44:45.925Z,26.02
2018-08-28T11:45:45.935Z,26.10
2018-08-28T11:46:45.944Z,26.38
2018-08-28T11:47:45.955Z,26.38
2018-08-28T11:48:45.964Z,26.63
2018-08-28T11:49:45.975Z,26.73
2018-08-28T11:50:45.983Z,26.80
2018-08-28T11:51:45.994Z,26.75
2018-08-28T11:52:46.027Z,26.60
2018-08-28T11:53:46.015Z,26.70
2018-08-28T11:54:46.029Z,26.95
2018-08-28T11:55:46.036Z,27.21
2018-08-28T11:56:46.046Z,27.26
2018-08-28T11:57:46.058Z,27.67
2018-08-28T11:58:46.069Z,27.87
2018-08-28T11:59:46.081Z,27.74
2018-08-28T12:00:46.094Z,27.70
2018-08-28T12:01:46.103Z,27.78
2018-08-28T12:02:46.114Z,27.75
2018-08-28T12:03:46.124Z,27.87
2018-08-28T12:04:46.137Z,27.65
2018-08-28T12:05:46.146Z,27.55
2018-08-28T12:06:46.206Z,27.65
2018-08-28T12:07:46.283Z,27.63
2018-08-28T12:08:46.178Z,27.83
2018-08-28T12:09:46.190Z,28.00
2018-08-28T12:10:46.201Z,28.12
2018-08-28T12:11:46.211Z,28.33
2018-08-28T12:12:46.223Z,28.19
2018-08-28T12:13:46.235Z,27.90
2018-08-28T12:14:46.244Z,27.86
2018-08-28T12:15:46.256Z,27.71
2018-08-28T12:16:46.266Z,27.74
2018-08-28T12:17:46.279Z,27.67
2018-08-28T12:18:46.287Z,27.92
2018-08-28T12:19:46.300Z,27.93
2018-08-28T12:20:46.321Z,28.22
2018-08-28T12:21:46.331Z,28.02
2018-08-28T12:22:46.333Z,27.93
2018-08-28T12:23:46.341Z,28.30
2018-08-28T12:24:46.352Z,28.66
2018-08-28T12:25:46.363Z,28.72
2018-08-28T12:26:46.384Z,28.74
2018-08-28T12:27:46.384Z,28.86
2018-08-28T12:28:46.402Z,29.12
2018-08-28T12:29:46.491Z,29.22
2018-08-28T12:30:46.418Z,29.50
2018-08-28T12:31:46.428Z,29.51
2018-08-28T12:32:46.438Z,29.57
2018-08-28T12:33:46.449Z,29.54
2018-08-28T12:34:46.461Z,29.72
2018-08-28T12:35:46.471Z,29.84
2018-08-28T12:36:46.550Z,29.94
2018-08-28T12:37:46.493Z,30.05
2018-08-28T12:38:46.504Z,30.34
2018-08-28T12:39:46.515Z,30.32
2018-08-28T12:40:46.526Z,30.32
2018-08-28T12:41:46.536Z,30.34
2018-08-28T12:42:46.554Z,30.09
2018-08-28T12:43:46.564Z,30.18
2018-08-28T12:44:46.567Z,29.94
2018-08-28T12:45:46.577Z,29.61
2018-08-28T12:46:46.586Z,29.63
2018-08-28T12:47:46.596Z,29.68
2018-08-28T12:48:46.608Z,29.42
2018-08-28T12:49:46.617Z,29.57
2018-08-28T12:50:46.626Z,29.88
2018-08-28T12:51:46.637Z,30.19
2018-08-28T12:52:46.646Z,30.50